Time;durP1;ratioP1;P1;durP2;ratioP2;P2;SDS_P1;SDS_P2;PMS_P1;PMS_P2;Temp;Humidity;BMP_temperature;BMP_pressure;BME280_temperature;BME280_humidity;BME280_pressure;Samples;Min_cycle;Max_cycle;Signal;HPM_P1;HPM_P2
2022/09/14 00:01:34;;;;;;;4.20;1.17;;;16.10;99.90;;;;;;4995320;28;20242;-54
2022/09/14 00:04:06;;;;;;;2.80;1.10;;;16.00;99.90;;;;;;5012681;28;20225;-53
2022/09/14 00:06:35;;;;;;;5.23;1.27;;;16.00;99.90;;;;;;4995158;28;20221;-54
2022/09/14 00:09:05;;;;;;;5.30;1.47;;;15.90;99.90;;;;;;4995514;28;20237;-54
2022/09/14 00:11:36;;;;;;;5.13;1.27;;;15.90;99.90;;;;;;4995027;28;20308;-54
2022/09/14 00:14:06;;;;;;;3.47;1.13;;;15.90;99.90;;;;;;5008691;28;20225;-54
2022/09/14 00:16:38;;;;;;;4.97;1.20;;;15.80;99.90;;;;;;5003929;28;20238;-54
2022/09/14 00:19:08;;;;;;;3.90;1.30;;;15.80;99.90;;;;;;4995132;28;20682;-54
2022/09/14 00:21:38;;;;;;;6.00;1.00;;;15.70;99.90;;;;;;4996913;28;20222;-54
2022/09/14 00:24:07;;;;;;;4.43;1.00;;;15.70;99.90;;;;;;4994901;28;20249;-54
2022/09/14 00:26:37;;;;;;;3.50;1.10;;;15.70;99.90;;;;;;4995267;28;20230;-55
2022/09/14 00:29:06;;;;;;;4.23;1.47;;;15.60;99.90;;;;;;5009054;28;20233;-54
2022/09/14 00:31:35;;;;;;;6.03;1.30;;;15.60;99.90;;;;;;4997045;28;20226;-54
2022/09/14 00:34:05;;;;;;;4.43;1.20;;;15.60;99.90;;;;;;5001809;28;20221;-54
2022/09/14 00:36:37;;;;;;;5.73;1.23;;;15.60;99.90;;;;;;4994514;28;20241;-54
2022/09/14 00:39:06;;;;;;;4.60;1.43;;;15.50;99.90;;;;;;4994691;28;20230;-54
2022/09/14 00:41:37;;;;;;;3.50;1.30;;;15.50;99.90;;;;;;5008313;28;20222;-54
2022/09/14 00:44:08;;;;;;;9.80;1.67;;;15.50;99.90;;;;;;4984828;28;20234;-54
2022/09/14 00:46:38;;;;;;;3.73;1.17;;;15.50;99.90;;;;;;4994228;28;20225;-54
2022/09/14 00:49:10;;;;;;;4.47;1.23;;;15.50;99.90;;;;;;4994195;28;20297;-54
2022/09/14 00:51:41;;;;;;;4.83;1.20;;;15.40;99.90;;;;;;4996637;28;20226;-54
2022/09/14 00:54:09;;;;;;;5.37;1.33;;;15.40;99.90;;;;;;4992985;28;20641;-54
2022/09/14 00:56:39;;;;;;;4.93;1.47;;;15.40;99.90;;;;;;4995434;28;20230;-54
2022/09/14 00:59:12;;;;;;;4.37;1.20;;;15.40;99.90;;;;;;5013788;28;20240;-54
2022/09/14 01:01:41;;;;;;;4.70;1.10;;;15.40;99.90;;;;;;5013100;28;20233;-54
2022/09/14 01:04:09;;;;;;;3.80;1.20;;;15.50;99.90;;;;;;5005314;28;20642;-54
2022/09/14 01:06:46;;;;;;;6.27;1.50;;;15.40;99.90;;;;;;5013852;28;20240;-54
2022/09/14 01:09:29;;;;;;;5.73;1.40;;;15.40;99.90;;;;;;5013684;28;20229;-54
2022/09/14 01:12:11;;;;;;;5.07;1.20;;;15.40;99.90;;;;;;5013554;28;20287;-54
2022/09/14 01:14:50;;;;;;;6.20;1.40;;;15.40;99.90;;;;;;5013480;28;20236;-54
2022/09/14 01:17:24;;;;;;;4.43;1.20;;;15.40;99.90;;;;;;4998103;28;20284;-54
2022/09/14 01:20:09;;;;;;;4.57;1.17;;;15.50;99.90;;;;;;4993990;28;20226;-54
2022/09/14 01:22:44;;;;;;;4.63;1.43;;;15.50;99.90;;;;;;4995739;28;20257;-53
2022/09/14 01:25:40;;;;;;;6.70;1.40;;;15.50;99.90;;;;;;4979552;28;20221;-54
2022/09/14 01:28:14;;;;;;;7.23;1.83;;;15.50;99.90;;;;;;4999024;28;20685;-54
2022/09/14 01:30:44;;;;;;;3.27;1.40;;;15.40;99.90;;;;;;4997854;28;20245;-54
2022/09/14 01:33:19;;;;;;;6.23;1.70;;;15.40;99.90;;;;;;4999274;28;20234;-54
2022/09/14 01:35:52;;;;;;;4.23;1.40;;;15.40;99.90;;;;;;5013285;28;20228;-53
2022/09/14 01:38:24;;;;;;;10.13;1.90;;;15.40;99.90;;;;;;4998929;28;20272;-55
2022/09/14 01:40:52;;;;;;;4.30;1.27;;;15.30;99.90;;;;;;4993821;28;20587;-54
2022/09/14 01:43:29;;;;;;;3.40;1.10;;;15.30;99.90;;;;;;4993519;28;20230;-54
2022/09/14 01:46:01;;;;;;;6.53;1.43;;;15.30;99.90;;;;;;4993641;28;20264;-54
2022/09/14 01:48:35;;;;;;;2.73;1.10;;;15.20;99.90;;;;;;4993004;28;20336;-53
2022/09/14 01:51:11;;;;;;;5.27;1.97;;;15.20;99.90;;;;;;4995885;28;20244;-54
2022/09/14 01:53:43;;;;;;;5.63;1.63;;;15.20;99.90;;;;;;4993524;28;20292;-54
2022/09/14 01:56:19;;;;;;;4.47;1.50;;;15.10;99.90;;;;;;4993707;28;20230;-54
2022/09/14 01:58:54;;;;;;;5.20;1.67;;;15.10;99.90;;;;;;4993110;28;20245;-54
2022/09/14 02:01:26;;;;;;;5.37;1.60;;;15.10;99.90;;;;;;4995258;28;20230;-54
2022/09/14 02:04:13;;;;;;;3.80;1.43;;;15.10;99.90;;;;;;5013191;28;20233;-54
2022/09/14 02:06:44;;;;;;;5.27;1.80;;;15.00;99.90;;;;;;5011775;28;20264;-54
2022/09/14 02:09:18;;;;;;;6.00;1.40;;;15.00;99.90;;;;;;5012946;28;20244;-54
2022/09/14 02:11:46;;;;;;;4.73;1.23;;;15.00;99.90;;;;;;5012740;28;20681;-54
2022/09/14 02:14:16;;;;;;;4.27;1.33;;;14.90;99.90;;;;;;5012411;28;20287;-54
2022/09/14 02:16:45;;;;;;;3.43;1.30;;;14.90;99.90;;;;;;5000974;28;20229;-53
2022/09/14 02:19:14;;;;;;;4.70;1.43;;;14.90;99.90;;;;;;4999563;28;20283;-53
2022/09/14 02:21:42;;;;;;;3.27;1.30;;;14.80;99.90;;;;;;4995320;28;20610;-54
2022/09/14 02:24:11;;;;;;;3.77;1.33;;;14.80;99.90;;;;;;4993347;28;20682;-54
2022/09/14 02:26:40;;;;;;;4.90;1.40;;;14.80;99.90;;;;;;5172455;22;20719;-54
2022/09/14 02:29:08;;;;;;;2.97;1.47;;;14.80;99.90;;;;;;5005116;28;20576;-55
2022/09/14 02:31:52;;;;;;;7.17;1.83;;;14.80;99.90;;;;;;4992778;28;20229;-56
2022/09/14 02:34:29;;;;;;;5.80;1.53;;;14.80;99.90;;;;;;4993017;28;20233;-55
2022/09/14 02:37:04;;;;;;;4.30;1.57;;;14.70;99.90;;;;;;4996278;28;20343;-56
2022/09/14 02:39:40;;;;;;;6.20;1.70;;;14.70;99.90;;;;;;4996898;28;20225;-55
2022/09/14 02:42:17;;;;;;;3.90;1.47;;;14.70;99.90;;;;;;4997713;28;20225;-55
2022/09/14 02:44:59;;;;;;;5.17;1.70;;;14.70;99.90;;;;;;4997373;28;20241;-55
2022/09/14 02:47:38;;;;;;;9.20;1.80;;;14.70;99.90;;;;;;4996999;28;20229;-55
2022/09/14 02:50:15;;;;;;;5.47;1.40;;;14.70;99.90;;;;;;4983464;28;20228;-55
2022/09/14 02:52:51;;;;;;;4.00;1.43;;;14.60;99.90;;;;;;5005255;28;20232;-56
2022/09/14 02:55:21;;;;;;;7.07;1.60;;;14.60;99.90;;;;;;4980132;28;20240;-55
2022/09/14 02:57:59;;;;;;;3.77;1.40;;;14.60;99.90;;;;;;4990972;28;20601;-56
2022/09/14 03:00:28;;;;;;;3.53;1.60;;;14.60;99.90;;;;;;4991537;28;20238;-54
2022/09/14 03:02:58;;;;;;;7.73;1.70;;;14.60;99.90;;;;;;4996842;28;20280;-55
2022/09/14 03:05:26;;;;;;;5.60;1.80;;;14.60;99.90;;;;;;4980795;28;20241;-54
2022/09/14 03:07:54;;;;;;;4.13;1.60;;;14.60;99.90;;;;;;4996853;28;20230;-54
2022/09/14 03:10:22;;;;;;;4.33;1.40;;;14.60;99.90;;;;;;4997126;28;20280;-54
2022/09/14 03:12:50;;;;;;;3.90;1.80;;;14.50;99.90;;;;;;4996614;28;20233;-56
2022/09/14 03:15:18;;;;;;;2.73;1.33;;;14.50;99.90;;;;;;4979963;28;20289;-54
2022/09/14 03:17:47;;;;;;;3.90;1.60;;;14.50;99.90;;;;;;4977581;28;20234;-56
2022/09/14 03:20:19;;;;;;;6.50;1.50;;;14.50;99.90;;;;;;4977380;28;20223;-54
2022/09/14 03:22:47;;;;;;;4.00;1.40;;;14.50;99.90;;;;;;5004535;28;20249;-54
2022/09/14 03:25:15;;;;;;;5.10;1.87;;;14.40;99.90;;;;;;4996921;28;20230;-54
2022/09/14 03:27:43;;;;;;;4.03;1.80;;;14.40;99.90;;;;;;5002111;28;20300;-55
2022/09/14 03:30:12;;;;;;;3.57;1.83;;;14.40;99.90;;;;;;4999833;28;20304;-54
2022/09/14 03:32:40;;;;;;;5.20;1.60;;;14.30;99.90;;;;;;4996405;28;20230;-54
2022/09/14 03:35:09;;;;;;;4.13;1.50;;;14.30;99.90;;;;;;5000606;28;20357;-54
2022/09/14 03:37:39;;;;;;;4.60;1.50;;;14.20;99.90;;;;;;5013397;28;20228;-55
2022/09/14 03:40:08;;;;;;;4.33;1.57;;;14.20;99.90;;;;;;5003081;28;20696;-54
2022/09/14 03:42:42;;;;;;;4.87;1.60;;;14.30;99.90;;;;;;4996376;28;20234;-54
2022/09/14 03:45:11;;;;;;;5.13;1.63;;;14.20;99.90;;;;;;4999365;28;20241;-54
2022/09/14 03:47:40;;;;;;;5.70;1.77;;;14.20;99.90;;;;;;4995551;28;20245;-56
2022/09/14 03:50:10;;;;;;;4.23;1.50;;;14.10;99.90;;;;;;5004890;28;20279;-56
2022/09/14 03:52:39;;;;;;;3.67;1.80;;;14.10;99.90;;;;;;5005905;28;20242;-55
2022/09/14 03:55:09;;;;;;;4.73;1.70;;;14.10;99.90;;;;;;4997267;28;20244;-55
2022/09/14 03:57:37;;;;;;;4.00;1.57;;;14.10;99.90;;;;;;4999873;28;20229;-54
2022/09/14 04:00:08;;;;;;;4.30;1.63;;;14.10;99.90;;;;;;4997159;28;20608;-52
2022/09/14 04:02:38;;;;;;;4.67;1.37;;;14.10;99.90;;;;;;4995793;28;20333;-54
2022/09/14 04:05:07;;;;;;;4.13;1.50;;;14.00;99.90;;;;;;4998790;28;20226;-55
2022/09/14 04:07:36;;;;;;;3.57;1.80;;;14.00;99.90;;;;;;5009907;28;20222;-56
2022/09/14 04:10:06;;;;;;;3.63;1.40;;;14.00;99.90;;;;;;5005569;28;20237;-54
2022/09/14 04:12:35;;;;;;;3.60;1.90;;;14.00;99.90;;;;;;4996073;28;20234;-54
2022/09/14 04:15:04;;;;;;;3.73;1.70;;;13.90;99.90;;;;;;4996275;28;20233;-55
2022/09/14 04:17:32;;;;;;;4.87;1.90;;;13.90;99.90;;;;;;4995711;28;20281;-52
2022/09/14 04:20:00;;;;;;;5.43;1.60;;;13.90;99.90;;;;;;5001907;28;20221;-55
2022/09/14 04:22:29;;;;;;;5.33;1.60;;;13.80;99.90;;;;;;5006959;28;20226;-54
2022/09/14 04:24:57;;;;;;;3.83;1.57;;;13.90;99.90;;;;;;4997138;28;20291;-53
2022/09/14 04:27:26;;;;;;;5.83;1.83;;;13.90;99.90;;;;;;4999032;28;20237;-54
2022/09/14 04:29:54;;;;;;;5.03;1.73;;;13.90;99.90;;;;;;5000181;28;20226;-54
2022/09/14 04:32:22;;;;;;;3.37;1.70;;;13.90;99.90;;;;;;4995484;28;20241;-54
2022/09/14 04:34:50;;;;;;;2.97;1.40;;;14.00;99.90;;;;;;5007635;28;20247;-55
2022/09/14 04:37:18;;;;;;;4.73;1.90;;;14.00;99.90;;;;;;5014848;28;20227;-54
2022/09/14 04:39:46;;;;;;;5.43;2.27;;;14.00;99.90;;;;;;5002269;28;20226;-55
2022/09/14 04:42:14;;;;;;;5.43;1.87;;;14.00;99.90;;;;;;4997324;28;20297;-54
2022/09/14 04:44:44;;;;;;;6.70;2.13;;;14.00;99.90;;;;;;5011029;28;20588;-54
2022/09/14 04:47:12;;;;;;;5.90;2.17;;;14.00;99.90;;;;;;5011710;28;20245;-55
2022/09/14 04:49:40;;;;;;;4.53;2.00;;;14.10;99.90;;;;;;4994984;28;20230;-54
2022/09/14 04:52:08;;;;;;;4.97;2.07;;;14.10;99.90;;;;;;5003466;28;20226;-54
2022/09/14 04:54:36;;;;;;;5.63;2.10;;;14.10;99.90;;;;;;5009554;28;20236;-52
2022/09/14 04:57:04;;;;;;;6.47;1.97;;;14.10;99.90;;;;;;5006854;28;20242;-55
2022/09/14 04:59:33;;;;;;;5.60;2.07;;;14.10;99.90;;;;;;5000726;28;20248;-55
2022/09/14 05:02:02;;;;;;;4.70;1.70;;;14.10;99.90;;;;;;5002054;28;20240;-54
2022/09/14 05:04:31;;;;;;;5.50;1.80;;;14.10;99.90;;;;;;5001550;28;20226;-55
2022/09/14 05:06:59;;;;;;;6.37;2.23;;;14.20;99.90;;;;;;4994909;28;20230;-53
2022/09/14 05:09:27;;;;;;;6.97;2.50;;;14.20;99.90;;;;;;5010917;28;20237;-55
2022/09/14 05:11:55;;;;;;;7.13;2.40;;;14.20;99.90;;;;;;4995056;28;20238;-54
2022/09/14 05:14:23;;;;;;;3.97;2.00;;;14.30;99.90;;;;;;5004530;28;20279;-55
2022/09/14 05:16:51;;;;;;;4.67;1.80;;;14.30;99.90;;;;;;4998841;28;20237;-55
2022/09/14 05:19:20;;;;;;;3.27;1.80;;;14.30;99.90;;;;;;5002010;28;20232;-55
2022/09/14 05:21:48;;;;;;;7.80;2.20;;;14.30;99.90;;;;;;5003058;28;20236;-54
2022/09/14 05:24:18;;;;;;;6.57;2.50;;;14.30;99.90;;;;;;5011431;28;20217;-53
2022/09/14 05:26:47;;;;;;;6.03;2.30;;;14.40;99.90;;;;;;5007810;28;20257;-55
2022/09/14 05:29:16;;;;;;;3.67;2.10;;;14.40;99.90;;;;;;4997266;28;20229;-55
2022/09/14 05:31:45;;;;;;;4.63;2.10;;;14.40;99.90;;;;;;4998102;28;20245;-54
2022/09/14 05:34:13;;;;;;;4.40;2.40;;;14.30;99.90;;;;;;5001377;28;20471;-54
2022/09/14 05:36:42;;;;;;;6.13;2.57;;;14.40;99.90;;;;;;5001036;28;20237;-55
2022/09/14 05:39:11;;;;;;;4.80;1.87;;;14.40;99.90;;;;;;5001923;28;20217;-55
2022/09/14 05:41:39;;;;;;;6.77;2.07;;;14.40;99.90;;;;;;5008216;28;20232;-54
2022/09/14 05:44:07;;;;;;;4.90;2.13;;;14.40;99.90;;;;;;4995813;28;20669;-55
2022/09/14 05:46:35;;;;;;;8.13;2.00;;;14.40;99.90;;;;;;5010095;28;20226;-55
2022/09/14 05:49:03;;;;;;;7.93;2.20;;;14.50;99.90;;;;;;5006198;28;20618;-56
2022/09/14 05:51:31;;;;;;;7.77;2.30;;;14.50;99.90;;;;;;5003104;28;20233;-54
2022/09/14 05:54:01;;;;;;;5.50;2.33;;;14.60;99.90;;;;;;5010341;28;20600;-56
2022/09/14 05:56:30;;;;;;;7.23;2.30;;;14.60;99.90;;;;;;5004759;28;20279;-54
2022/09/14 05:58:59;;;;;;;6.73;2.00;;;14.70;99.90;;;;;;4999827;28;20240;-56
2022/09/14 06:01:29;;;;;;;6.50;2.57;;;14.70;99.90;;;;;;4995309;28;20257;-55
2022/09/14 06:04:01;;;;;;;7.47;2.20;;;14.70;99.90;;;;;;4995318;28;20284;-54
2022/09/14 06:06:30;;;;;;;5.63;2.27;;;14.80;99.90;;;;;;5009065;28;20214;-55
2022/09/14 06:08:59;;;;;;;4.33;1.80;;;14.90;99.90;;;;;;5000634;28;20240;-55
2022/09/14 06:11:29;;;;;;;5.63;2.30;;;15.00;99.90;;;;;;4993575;28;20237;-55
2022/09/14 06:13:58;;;;;;;4.57;1.93;;;15.00;99.90;;;;;;5009959;28;20234;-55
2022/09/14 06:16:27;;;;;;;4.67;1.80;;;15.00;99.90;;;;;;5010297;28;20278;-55
2022/09/14 06:18:57;;;;;;;4.47;1.80;;;15.10;99.90;;;;;;5006791;28;20240;-55
2022/09/14 06:21:28;;;;;;;4.40;1.57;;;15.10;99.90;;;;;;5005071;28;20700;-55
2022/09/14 06:23:57;;;;;;;4.47;1.77;;;15.10;99.90;;;;;;5003486;28;20701;-55
2022/09/14 06:26:26;;;;;;;4.97;1.90;;;15.20;99.90;;;;;;5004656;28;20244;-55
2022/09/14 06:28:54;;;;;;;4.93;1.83;;;15.20;99.90;;;;;;4998649;28;20357;-56
2022/09/14 06:31:24;;;;;;;4.70;1.67;;;15.20;99.90;;;;;;5006645;28;20268;-54
2022/09/14 06:33:52;;;;;;;5.17;2.07;;;15.20;99.90;;;;;;5011178;28;20232;-56
2022/09/14 06:36:22;;;;;;;6.53;2.00;;;15.30;99.90;;;;;;5008741;28;20229;-55
2022/09/14 06:38:50;;;;;;;6.87;2.53;;;15.30;99.90;;;;;;4998864;28;20260;-56
2022/09/14 06:41:21;;;;;;;3.77;1.70;;;15.30;99.90;;;;;;5008083;28;20213;-56
2022/09/14 06:43:51;;;;;;;4.77;1.73;;;15.30;99.90;;;;;;5004717;28;20226;-56
2022/09/14 06:46:20;;;;;;;6.63;2.23;;;15.40;99.90;;;;;;5000770;28;20224;-56
2022/09/14 06:48:52;;;;;;;5.80;2.03;;;15.40;99.90;;;;;;5012441;28;20684;-56
2022/09/14 06:51:23;;;;;;;6.10;1.93;;;15.50;99.90;;;;;;5011103;28;20233;-56
2022/09/14 06:53:52;;;;;;;5.23;1.67;;;15.50;99.90;;;;;;5005279;28;20230;-56
2022/09/14 06:56:21;;;;;;;6.37;1.73;;;15.50;99.90;;;;;;5012367;28;20239;-55
2022/09/14 06:58:51;;;;;;;5.40;1.67;;;15.60;99.90;;;;;;4999322;28;20229;-56
2022/09/14 07:01:21;;;;;;;7.40;1.97;;;15.70;99.90;;;;;;4993484;28;20713;-56
2022/09/14 07:03:51;;;;;;;4.37;1.50;;;15.80;99.90;;;;;;4997007;28;20260;-55
2022/09/14 07:06:22;;;;;;;4.67;1.80;;;16.20;99.90;;;;;;5007660;28;20269;-55
2022/09/14 07:08:51;;;;;;;5.53;1.80;;;16.70;99.90;;;;;;5000452;28;20612;-56
2022/09/14 07:11:22;;;;;;;4.43;1.70;;;17.10;99.90;;;;;;4996177;28;20226;-56
2022/09/14 07:13:50;;;;;;;4.33;1.60;;;17.40;99.90;;;;;;4996048;28;20288;-57
2022/09/14 07:16:20;;;;;;;5.50;1.80;;;17.60;99.90;;;;;;4994847;28;20230;-56
2022/09/14 07:18:48;;;;;;;3.20;1.57;;;17.80;99.90;;;;;;4993678;28;20547;-57
2022/09/14 07:21:19;;;;;;;6.70;2.00;;;18.00;99.90;;;;;;4998069;28;20225;-56
2022/09/14 07:23:48;;;;;;;5.50;1.73;;;18.10;99.90;;;;;;5010024;28;20229;-56
2022/09/14 07:26:18;;;;;;;6.63;1.80;;;18.30;99.90;;;;;;4997643;28;20239;-56
2022/09/14 07:28:48;;;;;;;6.47;1.80;;;18.50;99.90;;;;;;5001478;28;20244;-57
2022/09/14 07:31:18;;;;;;;7.73;1.80;;;18.60;99.90;;;;;;4997127;28;20241;-56
2022/09/14 07:33:48;;;;;;;4.03;1.80;;;18.90;99.90;;;;;;5001142;28;20292;-57
2022/09/14 07:36:16;;;;;;;4.40;1.47;;;19.10;99.90;;;;;;5006924;28;20229;-56
2022/09/14 07:38:44;;;;;;;5.50;1.80;;;19.30;99.90;;;;;;5007380;28;20236;-53
2022/09/14 07:41:20;;;;;;;3.23;1.40;;;19.60;99.90;;;;;;5011386;28;20564;-56
2022/09/14 07:43:49;;;;;;;5.10;1.60;;;19.80;99.90;;;;;;5014419;28;20235;-57
2022/09/14 07:46:18;;;;;;;5.60;1.60;;;20.00;99.90;;;;;;5007622;28;20227;-55
2022/09/14 07:48:48;;;;;;;4.80;1.40;;;20.20;99.90;;;;;;5013512;28;20309;-57
2022/09/14 07:51:16;;;;;;;6.03;1.67;;;20.30;99.90;;;;;;5013639;28;20761;-55
2022/09/14 07:53:45;;;;;;;6.33;1.97;;;20.50;99.90;;;;;;5000015;28;21237;-56
2022/09/14 07:56:15;;;;;;;4.83;1.60;;;20.50;99.90;;;;;;4999192;28;20228;-56
2022/09/14 07:58:44;;;;;;;4.63;1.47;;;20.70;99.90;;;;;;5009813;28;20235;-56
2022/09/14 08:01:16;;;;;;;3.83;1.40;;;20.80;99.90;;;;;;4996424;28;20241;-56
2022/09/14 08:03:47;;;;;;;4.80;1.43;;;21.20;99.90;;;;;;5008974;28;20232;-56
2022/09/14 08:06:18;;;;;;;5.73;1.40;;;21.40;99.90;;;;;;4996902;28;20236;-55
2022/09/14 08:08:48;;;;;;;4.53;1.30;;;21.50;99.90;;;;;;4997210;28;20321;-54
2022/09/14 08:11:18;;;;;;;4.97;1.30;;;21.40;99.90;;;;;;4977722;28;20295;-54
2022/09/14 08:13:49;;;;;;;5.50;1.50;;;21.10;99.90;;;;;;4985416;28;20261;-55
2022/09/14 08:16:18;;;;;;;3.10;1.23;;;21.00;99.90;;;;;;5008648;28;20654;-54
2022/09/14 08:18:48;;;;;;;5.47;1.30;;;21.20;99.90;;;;;;4997146;28;20746;-55
2022/09/14 08:21:17;;;;;;;5.83;1.40;;;21.50;99.90;;;;;;5001495;28;20262;-54
2022/09/14 08:23:45;;;;;;;4.70;1.10;;;21.70;99.90;;;;;;5000056;28;20693;-56
2022/09/14 08:26:15;;;;;;;8.30;1.23;;;21.90;99.90;;;;;;5010805;28;20249;-55
2022/09/14 08:28:44;;;;;;;4.90;0.83;;;21.90;99.90;;;;;;4999841;28;20259;-55
2022/09/14 08:31:14;;;;;;;5.87;1.20;;;22.10;99.90;;;;;;4999714;28;20257;-56
2022/09/14 08:33:44;;;;;;;4.33;1.20;;;22.20;99.90;;;;;;4996243;28;20237;-54
2022/09/14 08:36:15;;;;;;;4.87;1.10;;;22.10;99.90;;;;;;4996923;28;20233;-55
2022/09/14 08:38:43;;;;;;;4.33;1.50;;;21.80;99.90;;;;;;4996134;28;20260;-55
2022/09/14 08:41:25;;;;;;;6.63;1.20;;;21.90;99.90;;;;;;4997143;28;20321;-56
2022/09/14 08:43:53;;;;;;;4.80;1.10;;;22.00;99.90;;;;;;4996875;28;20263;-56
2022/09/14 08:46:29;;;;;;;5.13;1.40;;;22.10;99.90;;;;;;4997175;28;20241;-56
2022/09/14 08:48:58;;;;;;;4.17;1.03;;;21.80;99.90;;;;;;4997107;28;20275;-56
2022/09/14 08:51:28;;;;;;;5.50;1.03;;;21.70;99.90;;;;;;5002629;28;20288;-55
2022/09/14 08:53:59;;;;;;;8.37;1.70;;;21.60;99.90;;;;;;5008560;28;20236;-56
2022/09/14 08:56:32;;;;;;;3.50;1.20;;;21.40;99.90;;;;;;5002117;28;20233;-56
2022/09/14 08:59:20;;;;;;;7.20;1.30;;;21.40;99.90;;;;;;4997099;28;20230;-56
2022/09/14 09:01:57;;;;;;;6.63;1.33;;;21.30;99.90;;;;;;5012033;28;20240;-56
2022/09/14 09:04:49;;;;;;;6.67;1.30;;;20.90;99.90;;;;;;5015951;28;20266;-56
2022/09/14 09:07:25;;;;;;;6.23;1.40;;;20.60;99.90;;;;;;5015770;28;20257;-56
2022/09/14 09:09:56;;;;;;;3.47;1.17;;;20.60;99.90;;;;;;5016037;28;20761;-56
2022/09/14 09:12:33;;;;;;;6.80;1.60;;;20.70;99.90;;;;;;5015596;28;20259;-54
2022/09/14 09:15:06;;;;;;;6.17;1.47;;;20.80;99.90;;;;;;5015560;28;20324;-56
2022/09/14 09:17:39;;;;;;;5.03;1.47;;;20.70;99.90;;;;;;4999037;28;20238;-55
2022/09/14 09:20:14;;;;;;;3.77;1.30;;;20.70;99.90;;;;;;4988599;28;20226;-55
2022/09/14 09:22:48;;;;;;;6.07;1.40;;;21.00;99.90;;;;;;4988632;28;20275;-56
2022/09/14 09:25:22;;;;;;;5.07;1.10;;;21.30;99.90;;;;;;4988190;28;20316;-55
2022/09/14 09:27:50;;;;;;;4.83;1.27;;;21.80;99.90;;;;;;4989596;28;20244;-55
2022/09/14 09:30:18;;;;;;;3.97;0.93;;;21.80;99.90;;;;;;4989929;28;20287;-56
2022/09/14 09:32:46;;;;;;;3.93;1.03;;;21.70;99.90;;;;;;4988409;28;20232;-55
2022/09/14 09:35:41;;;;;;;4.67;1.00;;;21.70;99.90;;;;;;4989089;28;20239;-56
2022/09/14 09:38:24;;;;;;;4.23;1.00;;;21.70;99.90;;;;;;4988140;28;20771;-56
2022/09/14 09:40:57;;;;;;;5.07;1.33;;;22.00;99.90;;;;;;4988245;28;20612;-56
2022/09/14 09:43:25;;;;;;;6.23;1.30;;;22.00;99.90;;;;;;4990725;28;20241;-55
2022/09/14 09:46:14;;;;;;;6.07;1.30;;;22.20;99.90;;;;;;4989851;28;20225;-53
2022/09/14 09:48:45;;;;;;;6.33;1.50;;;22.10;99.90;;;;;;4989524;28;20284;-56
2022/09/14 09:51:15;;;;;;;3.37;1.10;;;22.10;99.90;;;;;;4990253;28;20233;-56
2022/09/14 09:53:50;;;;;;;7.67;1.30;;;22.50;99.90;;;;;;4990209;28;21220;-56
2022/09/14 09:56:22;;;;;;;4.27;1.10;;;22.80;99.90;;;;;;4989113;28;20237;-55
2022/09/14 09:58:51;;;;;;;2.40;0.90;;;22.90;99.90;;;;;;4989498;28;20226;-55
2022/09/14 10:01:22;;;;;;;4.50;1.13;;;22.90;99.90;;;;;;4989655;28;21598;-56
2022/09/14 10:04:06;;;;;;;4.13;1.30;;;22.60;99.90;;;;;;4989837;28;20230;-56
2022/09/14 10:06:42;;;;;;;5.23;1.40;;;22.60;99.90;;;;;;4988685;28;20233;-56
2022/09/14 10:09:18;;;;;;;3.73;1.27;;;22.70;99.90;;;;;;4990451;28;20245;-56
2022/09/14 10:11:47;;;;;;;6.83;1.40;;;22.80;99.90;;;;;;4989261;28;20283;-56
2022/09/14 10:14:25;;;;;;;3.20;1.20;;;22.60;99.90;;;;;;4989592;28;20697;-56
2022/09/14 10:17:03;;;;;;;3.30;1.10;;;22.30;99.90;;;;;;4990747;28;20225;-56
2022/09/14 10:19:33;;;;;;;6.90;1.23;;;22.10;99.90;;;;;;4989508;28;20252;-54
2022/09/14 10:22:16;;;;;;;4.77;1.40;;;21.50;99.90;;;;;;4987756;28;20233;-55
2022/09/14 10:24:58;;;;;;;6.10;1.30;;;21.30;99.90;;;;;;4989410;28;20226;-56
2022/09/14 10:27:38;;;;;;;4.37;1.43;;;21.00;99.90;;;;;;4989598;28;20245;-56
2022/09/14 10:30:13;;;;;;;4.73;1.27;;;20.80;99.90;;;;;;4988247;28;20224;-55
2022/09/14 10:32:43;;;;;;;6.23;1.50;;;20.50;99.90;;;;;;4989780;28;20248;-56
2022/09/14 10:35:16;;;;;;;6.47;1.70;;;20.20;99.90;;;;;;4990236;28;20620;-56
2022/09/14 10:38:05;;;;;;;4.27;1.03;;;20.10;99.90;;;;;;4988673;28;20871;-54
2022/09/14 10:40:37;;;;;;;7.03;1.40;;;20.00;99.90;;;;;;4988351;28;20283;-55
2022/09/14 10:43:15;;;;;;;4.13;1.17;;;20.00;99.90;;;;;;4989053;28;20720;-56
2022/09/14 10:45:49;;;;;;;6.47;1.60;;;19.90;99.90;;;;;;4989528;28;20236;-56
2022/09/14 10:48:35;;;;;;;5.07;1.40;;;19.70;99.90;;;;;;4988669;28;20221;-55
2022/09/14 10:51:22;;;;;;;5.73;1.20;;;19.70;99.90;;;;;;4989628;28;20229;-56
2022/09/14 10:53:55;;;;;;;6.57;1.50;;;19.80;99.90;;;;;;4988632;28;20236;-56
2022/09/14 10:56:33;;;;;;;6.07;2.27;;;20.00;99.90;;;;;;4989696;28;20226;-55
2022/09/14 10:59:20;;;;;;;4.70;1.50;;;20.10;99.90;;;;;;4992980;28;20716;-56
2022/09/14 11:02:23;;;;;;;4.80;1.40;;;20.20;99.90;;;;;;4992026;28;20240;-55
2022/09/14 11:05:07;;;;;;;4.40;1.47;;;20.40;99.90;;;;;;4991367;28;20283;-55
2022/09/14 11:07:44;;;;;;;6.80;1.73;;;20.70;99.90;;;;;;4993072;28;20229;-56
2022/09/14 11:10:21;;;;;;;6.77;1.83;;;20.90;99.90;;;;;;4991636;28;20225;-56
2022/09/14 11:13:03;;;;;;;9.17;1.83;;;21.00;99.90;;;;;;4994074;28;20292;-55
2022/09/14 11:15:38;;;;;;;5.37;1.20;;;21.00;99.90;;;;;;4991683;28;20234;-55
2022/09/14 11:18:17;;;;;;;5.87;1.53;;;21.20;99.90;;;;;;4992712;28;20240;-55
2022/09/14 11:20:58;;;;;;;7.13;1.50;;;21.20;99.90;;;;;;4993245;28;20237;-55
2022/09/14 11:23:41;;;;;;;6.73;1.70;;;21.00;99.90;;;;;;4993181;28;20242;-54
2022/09/14 11:26:14;;;;;;;6.27;1.63;;;21.00;99.90;;;;;;4991663;28;20236;-56
2022/09/14 11:28:51;;;;;;;7.60;1.57;;;21.00;99.90;;;;;;4992456;28;20234;-55
2022/09/14 11:31:23;;;;;;;5.43;1.47;;;20.90;99.90;;;;;;4992111;28;20739;-56
2022/09/14 11:33:57;;;;;;;5.00;1.90;;;21.20;99.90;;;;;;4990206;28;20221;-55
2022/09/14 11:36:29;;;;;;;5.67;1.40;;;21.30;99.90;;;;;;4993872;28;21143;-55
2022/09/14 11:39:11;;;;;;;7.07;1.63;;;21.70;99.90;;;;;;4994081;28;20231;-56
2022/09/14 11:41:45;;;;;;;7.63;1.60;;;21.90;99.90;;;;;;4992091;28;20675;-56
2022/09/14 11:44:21;;;;;;;4.47;1.37;;;21.90;99.90;;;;;;4993843;28;20229;-56
2022/09/14 11:46:53;;;;;;;7.63;1.73;;;22.00;99.90;;;;;;4990797;28;20242;-56
2022/09/14 11:49:34;;;;;;;6.23;1.50;;;22.00;99.90;;;;;;4990038;28;20230;-55
2022/09/14 11:52:07;;;;;;;5.37;1.37;;;21.90;99.90;;;;;;4990167;28;20224;-56
2022/09/14 11:54:40;;;;;;;5.23;1.43;;;21.80;99.90;;;;;;4992619;28;20244;-55
2022/09/14 11:57:17;;;;;;;6.63;1.87;;;21.80;99.90;;;;;;4993778;28;20232;-56
2022/09/14 11:59:55;;;;;;;6.57;1.50;;;21.70;99.90;;;;;;4991904;28;20270;-55
2022/09/14 12:03:14;;;;;;;5.93;1.67;;;21.60;99.90;;;;;;4988901;28;20237;-56
2022/09/14 12:05:43;;;;;;;5.60;1.30;;;21.40;99.90;;;;;;4991211;28;20247;-56
2022/09/14 12:08:41;;;;;;;7.17;1.67;;;21.40;99.90;;;;;;4991933;28;20219;-56
2022/09/14 12:11:34;;;;;;;8.60;1.60;;;21.20;99.90;;;;;;4930889;29;20232;-55
2022/09/14 12:14:29;;;;;;;5.73;1.43;;;21.30;99.90;;;;;;4974606;28;20238;-56
2022/09/14 12:17:17;;;;;;;6.53;1.20;;;21.40;99.90;;;;;;4990517;28;20258;-56
2022/09/14 12:20:41;;;;;;;5.50;1.77;;;21.40;99.90;;;;;;4992922;28;20225;-55
2022/09/14 12:23:28;;;;;;;8.10;1.60;;;21.40;99.90;;;;;;4992953;28;20581;-55
2022/09/14 12:26:30;;;;;;;4.83;1.20;;;21.50;99.90;;;;;;4992558;28;20238;-56
2022/09/14 12:29:22;;;;;;;8.10;1.60;;;21.60;99.90;;;;;;4980696;28;20260;-57
2022/09/14 12:32:38;;;;;;;6.07;1.60;;;21.50;99.90;;;;;;4986870;28;20248;-55
2022/09/14 12:35:45;;;;;;;5.00;1.47;;;21.50;99.90;;;;;;4991853;28;20284;-53
2022/09/14 12:38:39;;;;;;;3.17;1.20;;;21.80;99.90;;;;;;4992133;28;20316;-56
2022/09/14 12:41:41;;;;;;;7.13;1.53;;;21.70;99.90;;;;;;4991542;28;20712;-56
2022/09/14 12:44:31;;;;;;;5.77;1.27;;;21.60;99.90;;;;;;4991718;28;20228;-56
2022/09/14 12:47:49;;;;;;;6.03;1.60;;;21.40;99.90;;;;;;4991224;28;20226;-55
2022/09/14 12:50:20;;;;;;;3.93;1.27;;;21.30;99.90;;;;;;4990749;28;20280;-55
2022/09/14 12:53:02;;;;;;;4.80;1.40;;;21.20;99.90;;;;;;4989482;28;20232;-56
2022/09/14 12:55:45;;;;;;;5.73;1.57;;;21.10;99.90;;;;;;4989326;28;20233;-55
2022/09/14 12:58:33;;;;;;;6.13;1.40;;;21.30;99.90;;;;;;4991743;28;20223;-56
2022/09/14 13:01:17;;;;;;;7.87;1.83;;;21.40;99.90;;;;;;4993551;28;20240;-56
2022/09/14 13:03:49;;;;;;;5.33;1.40;;;21.50;99.90;;;;;;4993856;28;20702;-55
2022/09/14 13:06:19;;;;;;;5.47;1.77;;;21.60;99.90;;;;;;4995999;28;20224;-56
2022/09/14 13:08:49;;;;;;;5.50;1.27;;;21.50;99.90;;;;;;5002636;28;20214;-56
2022/09/14 13:11:23;;;;;;;7.10;1.50;;;21.40;99.90;;;;;;5005338;28;20240;-56
2022/09/14 13:13:52;;;;;;;4.70;1.57;;;21.30;99.90;;;;;;5005334;28;20236;-55
2022/09/14 13:16:30;;;;;;;4.70;1.50;;;21.20;99.90;;;;;;5002674;28;20233;-56
2022/09/14 13:19:05;;;;;;;4.23;1.40;;;21.00;99.90;;;;;;5002834;28;20307;-56
2022/09/14 13:21:47;;;;;;;3.63;1.30;;;21.00;99.90;;;;;;5003477;28;20256;-56